createdAt,value
2023-11-17T00:00:21.835Z,85.75
2023-11-17T00:03:10.211Z,85.75
2023-11-17T00:05:39.631Z,85.82
2023-11-17T00:08:32.676Z,85.85
2023-11-17T00:11:01.561Z,85.71
2023-11-17T00:13:30.078Z,85.78
2023-11-17T00:15:58.525Z,85.77
2023-11-17T00:18:26.986Z,85.73
2023-11-17T00:20:55.493Z,85.72
2023-11-17T00:23:23.718Z,85.78
2023-11-17T00:25:52.077Z,85.76
2023-11-17T00:28:21.697Z,85.79
2023-11-17T00:30:51.781Z,85.76
2023-11-17T00:33:21.003Z,85.87
2023-11-17T00:35:49.090Z,85.81
2023-11-17T00:38:17.475Z,85.69
2023-11-17T00:40:46.935Z,85.74
2023-11-17T00:43:15.021Z,85.78
2023-11-17T00:45:43.730Z,85.93
2023-11-17T00:48:15.046Z,85.82
2023-11-17T00:50:43.294Z,85.91
2023-11-17T00:53:14.311Z,85.89
2023-11-17T00:55:42.695Z,85.86
2023-11-17T00:58:10.965Z,85.93
2023-11-17T01:00:39.109Z,85.94
2023-11-17T01:03:07.475Z,85.74
2023-11-17T01:05:35.680Z,85.79
2023-11-17T01:08:03.821Z,85.77
2023-11-17T01:10:37.047Z,85.93
2023-11-17T01:13:08.275Z,85.92
2023-11-17T01:15:37.750Z,85.91
2023-11-17T01:18:10.358Z,85.90
2023-11-17T01:20:42.518Z,86.00
2023-11-17T01:23:14.457Z,85.90
2023-11-17T01:25:43.260Z,85.97
2023-11-17T01:28:11.719Z,85.94
2023-11-17T01:30:39.969Z,85.85
2023-11-17T01:33:10.063Z,85.80
2023-11-17T01:35:40.812Z,85.61
2023-11-17T01:38:10.952Z,85.79
2023-11-17T01:40:39.528Z,85.81
2023-11-17T01:43:12.988Z,85.97
2023-11-17T01:45:41.511Z,85.87
2023-11-17T01:48:13.457Z,85.90
2023-11-17T01:50:41.675Z,85.96
2023-11-17T01:53:10.306Z,86.02
2023-11-17T01:55:38.669Z,86.02
2023-11-17T01:58:09.597Z,86.08
2023-11-17T02:00:37.882Z,86.09
2023-11-17T02:03:07.557Z,86.08
2023-11-17T02:05:36.543Z,86.06
2023-11-17T02:08:26.704Z,86.16
2023-11-17T02:11:09.181Z,86.02
2023-11-17T02:13:48.728Z,86.04
2023-11-17T02:16:26.286Z,86.02
2023-11-17T02:19:00.536Z,85.99
2023-11-17T02:21:36.208Z,86.07
2023-11-17T02:24:08.162Z,86.17
2023-11-17T02:27:01.488Z,86.09
2023-11-17T02:29:35.981Z,85.94
2023-11-17T02:32:05.688Z,86.02
2023-11-17T02:34:33.742Z,86.03
2023-11-17T02:37:07.055Z,85.99
2023-11-17T02:39:40.164Z,86.02
2023-11-17T02:42:14.928Z,86.08
2023-11-17T02:44:44.863Z,86.09
2023-11-17T02:47:21.197Z,86.01
2023-11-17T02:49:54.761Z,85.91
2023-11-17T02:52:33.470Z,85.85
2023-11-17T02:55:05.230Z,85.88
2023-11-17T02:57:37.336Z,85.94
2023-11-17T03:00:08.583Z,85.76
2023-11-17T03:02:41.271Z,85.79
2023-11-17T03:05:17.185Z,85.80
2023-11-17T03:07:46.967Z,85.88
2023-11-17T03:10:15.381Z,85.89
2023-11-17T03:12:43.367Z,85.90
2023-11-17T03:15:11.628Z,85.84
2023-11-17T03:17:40.166Z,85.81
2023-11-17T03:20:15.785Z,85.66
2023-11-17T03:22:47.235Z,85.76
2023-11-17T03:25:17.100Z,85.79
2023-11-17T03:27:52.139Z,85.74
2023-11-17T03:30:20.293Z,85.72
2023-11-17T03:32:54.294Z,85.64
2023-11-17T03:35:22.424Z,85.71
2023-11-17T03:37:52.286Z,85.61
2023-11-17T03:40:20.634Z,85.54
2023-11-17T03:42:48.696Z,85.56
2023-11-17T03:45:17.074Z,85.52
2023-11-17T03:47:46.556Z,85.51
2023-11-17T03:50:15.461Z,85.53
2023-11-17T03:52:43.919Z,85.46
2023-11-17T03:55:12.969Z,85.41
2023-11-17T03:57:41.113Z,85.41
2023-11-17T04:00:11.596Z,85.39
2023-11-17T04:02:39.987Z,85.26
2023-11-17T04:05:14.928Z,85.09
2023-11-17T04:07:44.268Z,85.20
2023-11-17T04:10:12.505Z,85.28
2023-11-17T04:12:40.544Z,85.26
2023-11-17T04:15:12.129Z,85.24
2023-11-17T04:17:42.275Z,85.22
2023-11-17T04:20:15.914Z,85.13
2023-11-17T04:22:44.860Z,85.19
2023-11-17T04:25:12.930Z,85.16
2023-11-17T04:27:43.727Z,85.13
2023-11-17T04:30:13.022Z,85.17
2023-11-17T04:32:41.354Z,85.20
2023-11-17T04:35:09.921Z,85.14
2023-11-17T04:37:39.702Z,85.21
2023-11-17T04:40:13.249Z,85.24
2023-11-17T04:42:41.570Z,85.26
2023-11-17T04:45:10.809Z,85.23
2023-11-17T04:47:38.942Z,85.16
2023-11-17T04:50:10.644Z,85.24
2023-11-17T04:52:38.777Z,85.23
2023-11-17T04:55:07.666Z,85.21
2023-11-17T04:57:36.057Z,85.09
2023-11-17T05:00:06.115Z,85.08
2023-11-17T05:02:34.858Z,85.14
2023-11-17T05:05:05.628Z,85.24
2023-11-17T05:07:33.696Z,85.29
2023-11-17T05:10:02.022Z,85.35
2023-11-17T05:12:30.155Z,85.35
2023-11-17T05:14:59.302Z,85.27
2023-11-17T05:17:31.060Z,85.20
2023-11-17T05:19:59.099Z,85.23
2023-11-17T05:22:27.419Z,85.28
2023-11-17T05:24:55.637Z,85.28
2023-11-17T05:27:23.580Z,85.22
2023-11-17T05:29:52.157Z,85.21
2023-11-17T05:32:20.383Z,85.30
2023-11-17T05:34:48.660Z,85.28
2023-11-17T05:37:17.111Z,85.09
2023-11-17T05:39:49.309Z,85.15
2023-11-17T05:42:17.731Z,85.18
2023-11-17T05:44:45.840Z,85.20
2023-11-17T05:47:14.536Z,85.23
2023-11-17T05:49:46.270Z,85.26
2023-11-17T05:52:17.954Z,85.01
2023-11-17T05:54:50.254Z,85.02
2023-11-17T05:57:20.957Z,85.11
2023-11-17T05:59:55.537Z,85.12
2023-11-17T06:02:24.374Z,85.02
2023-11-17T06:04:52.546Z,85.08
2023-11-17T06:07:21.510Z,85.19
2023-11-17T06:09:49.729Z,85.19
2023-11-17T06:12:17.770Z,85.23
2023-11-17T06:14:45.788Z,85.12
2023-11-17T06:17:14.605Z,84.96
2023-11-17T06:19:43.554Z,85.03
2023-11-17T06:22:12.586Z,85.02
2023-11-17T06:24:40.618Z,85.05
2023-11-17T06:27:12.180Z,85.22
2023-11-17T06:29:40.271Z,85.41
2023-11-17T06:32:09.524Z,85.48
2023-11-17T06:34:37.586Z,85.49
2023-11-17T06:37:08.003Z,85.63
2023-11-17T06:39:36.529Z,85.68
2023-11-17T06:42:08.238Z,85.64
2023-11-17T06:44:36.591Z,85.67
2023-11-17T06:47:05.015Z,85.79
2023-11-17T06:49:34.576Z,85.59
2023-11-17T06:52:03.391Z,85.48
2023-11-17T06:54:31.830Z,85.53
2023-11-17T06:56:59.818Z,85.51
2023-11-17T06:59:27.836Z,85.58
2023-11-17T07:01:55.913Z,85.63
2023-11-17T07:04:24.332Z,85.62
2023-11-17T07:06:53.750Z,85.67
2023-11-17T07:09:23.390Z,85.66
2023-11-17T07:11:55.413Z,85.48
2023-11-17T07:14:23.832Z,85.23
2023-11-17T07:16:54.092Z,85.05
2023-11-17T07:19:22.196Z,85.20
2023-11-17T07:21:51.776Z,85.02
2023-11-17T07:24:20.462Z,85.09
2023-11-17T07:26:49.295Z,85.04
2023-11-17T07:29:17.939Z,85.10
2023-11-17T07:31:49.202Z,85.20
2023-11-17T07:34:18.268Z,85.27
2023-11-17T07:36:49.275Z,85.15
2023-11-17T07:39:24.930Z,85.16
2023-11-17T07:41:54.505Z,85.18
2023-11-17T07:44:23.334Z,85.21
2023-11-17T07:46:51.640Z,84.94
2023-11-17T07:49:21.605Z,84.86
2023-11-17T07:51:50.381Z,84.94
2023-11-17T07:54:19.229Z,85.12
2023-11-17T07:56:52.345Z,85.12
2023-11-17T07:59:23.210Z,85.09
2023-11-17T08:01:51.470Z,85.04
2023-11-17T08:04:19.848Z,84.96
2023-11-17T08:06:48.126Z,85.05
2023-11-17T08:09:18.621Z,85.06
2023-11-17T08:11:47.368Z,85.03
2023-11-17T08:14:16.145Z,84.83
2023-11-17T08:16:44.191Z,84.90
2023-11-17T08:19:18.805Z,84.71
2023-11-17T08:21:56.303Z,84.82
2023-11-17T08:24:25.146Z,84.81
2023-11-17T08:26:53.760Z,84.91
2023-11-17T08:29:23.602Z,84.93
2023-11-17T08:31:53.015Z,84.88
2023-11-17T08:34:23.428Z,84.85
2023-11-17T08:36:52.082Z,84.89
2023-11-17T08:39:29.483Z,84.84
2023-11-17T08:41:58.400Z,84.82
2023-11-17T08:44:30.483Z,84.68
2023-11-17T08:47:01.378Z,84.82
2023-11-17T08:49:29.590Z,85.00
2023-11-17T08:51:58.625Z,84.81
2023-11-17T08:54:28.003Z,84.76
2023-11-17T08:56:59.788Z,84.73
2023-11-17T08:59:28.034Z,84.68
2023-11-17T09:01:56.230Z,84.46
2023-11-17T09:04:24.338Z,84.41
2023-11-17T09:06:54.185Z,84.38
2023-11-17T09:09:28.695Z,84.30
2023-11-17T09:12:01.121Z,84.30
2023-11-17T09:14:33.005Z,84.36
2023-11-17T09:17:08.784Z,84.37
2023-11-17T09:19:39.442Z,84.22
2023-11-17T09:22:07.661Z,84.33
2023-11-17T09:24:35.857Z,84.29
2023-11-17T09:27:06.167Z,84.27
2023-11-17T09:29:35.407Z,84.08
2023-11-17T09:32:04.561Z,83.97
2023-11-17T09:34:32.876Z,84.01
2023-11-17T09:37:01.096Z,83.83
2023-11-17T09:39:29.245Z,84.02
2023-11-17T09:41:58.545Z,83.99
2023-11-17T09:44:28.931Z,83.95
2023-11-17T09:47:20.161Z,84.01
2023-11-17T09:49:51.673Z,84.00
2023-11-17T09:52:21.124Z,83.73
2023-11-17T09:54:50.789Z,83.03
2023-11-17T09:57:21.252Z,82.64
2023-11-17T09:59:51.132Z,82.59
2023-11-17T10:02:22.410Z,82.62
2023-11-17T10:04:53.915Z,82.88
2023-11-17T10:07:26.155Z,83.37
2023-11-17T10:09:59.235Z,83.30
2023-11-17T10:12:28.944Z,82.50
2023-11-17T10:14:58.460Z,82.05
2023-11-17T10:17:27.343Z,82.65
2023-11-17T10:19:57.272Z,82.82
2023-11-17T10:22:25.523Z,82.14
2023-11-17T10:24:53.696Z,81.73
2023-11-17T10:27:21.819Z,81.91
2023-11-17T10:29:49.932Z,81.95
2023-11-17T10:32:36.631Z,81.88
2023-11-17T10:35:25.481Z,82.48
2023-11-17T10:37:59.979Z,82.73
2023-11-17T10:40:33.259Z,82.55
2023-11-17T10:43:15.765Z,82.19
2023-11-17T10:45:47.064Z,82.64
2023-11-17T10:48:15.244Z,82.75
2023-11-17T10:50:45.007Z,82.81
2023-11-17T10:53:25.626Z,82.77
2023-11-17T10:55:59.123Z,82.76
2023-11-17T10:58:27.256Z,82.49
2023-11-17T11:00:57.652Z,82.60
2023-11-17T11:03:26.240Z,82.53
2023-11-17T11:06:00.383Z,82.14
2023-11-17T11:08:29.324Z,82.33
2023-11-17T11:10:59.150Z,82.51
2023-11-17T11:13:32.134Z,82.55
2023-11-17T11:16:09.243Z,82.57
2023-11-17T11:18:49.335Z,82.46
2023-11-17T11:21:20.027Z,82.50
2023-11-17T11:23:52.317Z,81.79
2023-11-17T11:26:20.440Z,82.06
2023-11-17T11:28:49.579Z,81.95
2023-11-17T11:31:21.127Z,82.09
2023-11-17T11:33:50.305Z,82.35
2023-11-17T11:36:20.194Z,82.44
2023-11-17T11:38:49.011Z,82.50
2023-11-17T11:41:23.715Z,82.61
2023-11-17T11:43:53.538Z,82.58
2023-11-17T11:46:28.540Z,82.35
2023-11-17T11:49:05.993Z,81.99
2023-11-17T11:51:58.759Z,81.89
2023-11-17T11:54:27.406Z,81.80
2023-11-17T11:56:58.818Z,81.77
2023-11-17T11:59:27.316Z,82.08
2023-11-17T12:01:58.079Z,82.09
2023-11-17T12:04:31.542Z,82.09
2023-11-17T12:06:59.717Z,82.21
2023-11-17T12:09:30.438Z,82.35
2023-11-17T12:12:00.322Z,82.26
2023-11-17T12:14:40.966Z,82.42
2023-11-17T12:17:09.234Z,82.43
2023-11-17T12:19:37.573Z,82.62
2023-11-17T12:22:06.342Z,82.50
2023-11-17T12:24:37.502Z,82.24
2023-11-17T12:27:07.336Z,82.33
2023-11-17T12:29:38.528Z,82.29
2023-11-17T12:32:09.137Z,81.91
2023-11-17T12:34:43.923Z,81.81
2023-11-17T12:37:14.831Z,82.14
2023-11-17T12:39:46.539Z,82.35
2023-11-17T12:42:21.362Z,82.46
2023-11-17T12:44:50.095Z,82.47
2023-11-17T12:47:25.998Z,82.55
2023-11-17T12:50:00.911Z,82.63
2023-11-17T12:52:29.537Z,82.59
2023-11-17T12:55:15.649Z,82.50
2023-11-17T12:57:43.680Z,82.39
2023-11-17T13:00:22.490Z,82.56
2023-11-17T13:02:50.784Z,82.47
2023-11-17T13:05:19.302Z,82.41
2023-11-17T13:07:48.231Z,82.49
2023-11-17T13:10:17.027Z,82.58
2023-11-17T13:12:49.176Z,82.73
2023-11-17T13:15:17.981Z,82.61
2023-11-17T13:17:46.474Z,82.67
2023-11-17T13:20:15.552Z,82.68
2023-11-17T13:22:45.145Z,82.56
2023-11-17T13:25:13.682Z,82.50
2023-11-17T13:27:45.522Z,82.61
2023-11-17T13:30:19.353Z,82.74
2023-11-17T13:32:58.466Z,82.80
2023-11-17T13:35:29.169Z,82.67
2023-11-17T13:38:05.162Z,82.64
2023-11-17T13:40:38.549Z,82.62
2023-11-17T13:43:12.159Z,82.64
2023-11-17T13:45:43.952Z,82.74
2023-11-17T13:48:13.831Z,82.74
2023-11-17T13:50:58.642Z,82.77
2023-11-17T13:53:30.189Z,82.79
2023-11-17T13:55:59.171Z,82.21
2023-11-17T13:58:27.495Z,82.12
2023-11-17T14:00:56.212Z,82.23
2023-11-17T14:03:24.226Z,82.53
2023-11-17T14:05:52.421Z,82.72
2023-11-17T14:08:21.287Z,82.83
2023-11-17T14:10:51.391Z,82.84
2023-11-17T14:13:19.688Z,82.74
2023-11-17T14:15:54.509Z,82.61
2023-11-17T14:18:26.291Z,82.56
2023-11-17T14:20:55.408Z,82.73
2023-11-17T14:23:26.003Z,82.78
2023-11-17T14:25:55.057Z,82.79
2023-11-17T14:28:23.068Z,82.90
2023-11-17T14:30:51.213Z,82.96
2023-11-17T14:33:19.358Z,82.99
2023-11-17T14:35:47.337Z,83.04
2023-11-17T14:38:16.404Z,83.14
2023-11-17T14:40:46.194Z,83.20
2023-11-17T14:43:15.385Z,83.19
2023-11-17T14:45:43.670Z,83.33
2023-11-17T14:48:11.962Z,83.33
2023-11-17T14:50:40.139Z,83.27
2023-11-17T14:53:09.777Z,83.19
2023-11-17T14:55:38.142Z,83.00
2023-11-17T14:58:09.646Z,82.63
2023-11-17T15:00:42.750Z,82.17
2023-11-17T15:03:12.897Z,82.21
2023-11-17T15:05:41.020Z,82.34
2023-11-17T15:08:27.890Z,82.36
2023-11-17T15:10:57.908Z,82.38
2023-11-17T15:13:26.151Z,82.21
2023-11-17T15:15:54.854Z,82.29
2023-11-17T15:18:22.800Z,82.62
2023-11-17T15:20:51.154Z,82.90
2023-11-17T15:23:19.764Z,83.05
2023-11-17T15:25:47.901Z,83.12
2023-11-17T15:28:21.658Z,83.07
2023-11-17T15:30:58.862Z,82.93
2023-11-17T15:33:26.966Z,82.91
2023-11-17T15:35:55.721Z,82.82
2023-11-17T15:38:27.587Z,82.64
2023-11-17T15:40:58.519Z,82.49
2023-11-17T15:43:28.366Z,82.28
2023-11-17T15:45:56.687Z,82.23
2023-11-17T15:48:25.807Z,82.23
2023-11-17T15:50:54.070Z,82.04
2023-11-17T15:53:22.211Z,81.84
2023-11-17T15:55:55.908Z,81.86
2023-11-17T15:58:25.373Z,82.13
2023-11-17T16:00:54.821Z,82.42
2023-11-17T16:03:23.170Z,82.37
2023-11-17T16:05:54.493Z,82.32
2023-11-17T16:08:22.677Z,82.10
2023-11-17T16:10:50.742Z,82.16
2023-11-17T16:13:18.958Z,82.31
2023-11-17T16:15:49.092Z,82.55
2023-11-17T16:18:17.028Z,82.71
2023-11-17T16:20:45.539Z,82.96
2023-11-17T16:23:16.833Z,83.12
2023-11-17T16:25:44.927Z,83.25
2023-11-17T16:28:13.090Z,83.33
2023-11-17T16:30:41.122Z,83.50
2023-11-17T16:33:09.942Z,83.54
2023-11-17T16:35:39.837Z,83.70
2023-11-17T16:38:08.261Z,83.76
2023-11-17T16:40:36.254Z,83.95
2023-11-17T16:43:09.788Z,84.09
2023-11-17T16:45:40.820Z,84.14
2023-11-17T16:48:09.290Z,84.23
2023-11-17T16:50:43.900Z,84.29
2023-11-17T16:53:15.626Z,84.37
2023-11-17T16:55:49.383Z,84.35
2023-11-17T16:58:20.162Z,84.38
2023-11-17T17:00:51.819Z,84.40
2023-11-17T17:03:24.116Z,84.36
2023-11-17T17:05:53.453Z,84.33
2023-11-17T17:08:27.489Z,84.33
2023-11-17T17:10:55.890Z,84.42
2023-11-17T17:13:24.099Z,84.46
2023-11-17T17:15:52.391Z,84.63
2023-11-17T17:18:20.886Z,84.76
2023-11-17T17:20:49.143Z,84.80
2023-11-17T17:23:19.097Z,84.74
2023-11-17T17:25:47.406Z,84.66
2023-11-17T17:28:16.803Z,84.60
2023-11-17T17:30:44.901Z,84.45
2023-11-17T17:33:14.096Z,84.47
2023-11-17T17:35:45.273Z,84.55
2023-11-17T17:38:14.157Z,84.48
2023-11-17T17:40:43.940Z,84.55
2023-11-17T17:43:13.666Z,84.60
2023-11-17T17:45:45.627Z,84.64
2023-11-17T17:48:14.868Z,84.67
2023-11-17T17:50:43.087Z,84.74
2023-11-17T17:53:11.201Z,84.73
2023-11-17T17:55:39.301Z,84.85
2023-11-17T17:58:08.431Z,84.86
2023-11-17T18:00:36.665Z,84.87
2023-11-17T18:03:06.703Z,84.91
2023-11-17T18:05:35.876Z,84.91
2023-11-17T18:08:28.246Z,84.87
2023-11-17T18:10:56.524Z,84.87
2023-11-17T18:13:25.033Z,84.97
2023-11-17T18:15:53.123Z,84.95
2023-11-17T18:18:21.074Z,84.75
2023-11-17T18:20:49.049Z,84.68
2023-11-17T18:23:17.023Z,84.50
2023-11-17T18:25:45.204Z,84.26
2023-11-17T18:28:13.655Z,84.10
2023-11-17T18:30:41.688Z,84.08
2023-11-17T18:33:09.911Z,84.10
2023-11-17T18:35:37.888Z,84.08
2023-11-17T18:38:05.870Z,84.23
2023-11-17T18:40:33.983Z,84.43
2023-11-17T18:43:02.223Z,84.46
2023-11-17T18:45:30.335Z,84.54
2023-11-17T18:47:59.752Z,84.61
2023-11-17T18:50:29.682Z,84.64
2023-11-17T18:52:59.403Z,84.60
2023-11-17T18:55:27.693Z,84.54
2023-11-17T18:57:55.816Z,84.66
2023-11-17T19:00:23.912Z,84.74
2023-11-17T19:02:53.443Z,84.95
2023-11-17T19:05:24.956Z,84.93
2023-11-17T19:07:56.021Z,85.04
2023-11-17T19:10:26.403Z,85.34
2023-11-17T19:12:54.718Z,85.40
2023-11-17T19:15:23.365Z,85.47
2023-11-17T19:17:51.769Z,85.59
2023-11-17T19:20:24.093Z,85.88
2023-11-17T19:22:52.354Z,85.88
2023-11-17T19:25:20.681Z,85.88
2023-11-17T19:27:48.888Z,85.94
2023-11-17T19:30:18.035Z,85.99
2023-11-17T19:32:49.865Z,85.90
2023-11-17T19:35:24.772Z,85.96
2023-11-17T19:37:53.382Z,85.93
2023-11-17T19:40:21.830Z,85.92
2023-11-17T19:42:50.607Z,85.90
2023-11-17T19:45:22.249Z,85.84
2023-11-17T19:47:51.232Z,85.75
2023-11-17T19:50:20.859Z,85.58
2023-11-17T19:52:53.795Z,85.55
2023-11-17T19:55:24.152Z,85.44
2023-11-17T19:57:54.612Z,85.32
2023-11-17T20:00:26.948Z,85.27
2023-11-17T20:02:57.211Z,85.21
2023-11-17T20:05:29.640Z,85.38
2023-11-17T20:07:58.165Z,85.26
2023-11-17T20:10:31.408Z,85.16
2023-11-17T20:13:01.805Z,85.19
2023-11-17T20:15:32.161Z,85.32
2023-11-17T20:18:00.458Z,85.33
2023-11-17T20:20:30.051Z,85.33
2023-11-17T20:22:59.446Z,85.29
2023-11-17T20:25:27.876Z,85.32
2023-11-17T20:27:57.390Z,85.37
2023-11-17T20:30:26.785Z,85.33
2023-11-17T20:32:55.976Z,85.21
2023-11-17T20:35:25.316Z,85.21
2023-11-17T20:37:54.587Z,84.80
2023-11-17T20:40:25.840Z,84.81
2023-11-17T20:42:54.208Z,84.60
2023-11-17T20:45:25.242Z,84.38
2023-11-17T20:47:53.882Z,84.53
2023-11-17T20:50:26.674Z,84.57
2023-11-17T20:52:55.122Z,84.27
2023-11-17T20:55:24.094Z,84.25
2023-11-17T20:57:52.967Z,84.41
2023-11-17T21:00:22.281Z,84.43
2023-11-17T21:02:53.461Z,84.38
2023-11-17T21:05:25.539Z,84.29
2023-11-17T21:07:56.077Z,84.26
2023-11-17T21:10:27.874Z,84.48
2023-11-17T21:12:57.115Z,84.51
2023-11-17T21:15:28.269Z,84.34
2023-11-17T21:17:56.871Z,84.34
2023-11-17T21:20:25.168Z,84.28
2023-11-17T21:22:53.265Z,84.09
2023-11-17T21:25:23.343Z,84.05
2023-11-17T21:27:53.968Z,84.24
2023-11-17T21:30:25.050Z,84.14
2023-11-17T21:32:55.365Z,84.09
2023-11-17T21:35:24.064Z,84.17
2023-11-17T21:37:53.956Z,84.18
2023-11-17T21:40:23.977Z,84.15
2023-11-17T21:42:53.132Z,84.34
2023-11-17T21:45:25.013Z,84.38
2023-11-17T21:47:56.490Z,84.37
2023-11-17T21:50:26.557Z,84.37
2023-11-17T21:52:55.595Z,84.31
2023-11-17T21:55:24.125Z,84.40
2023-11-17T21:57:55.985Z,84.49
2023-11-17T22:00:28.112Z,84.41
2023-11-17T22:02:56.678Z,84.43
2023-11-17T22:05:25.042Z,84.03
2023-11-17T22:07:53.703Z,83.89
2023-11-17T22:10:22.035Z,83.94
2023-11-17T22:12:50.904Z,84.08
2023-11-17T22:15:20.671Z,84.10
2023-11-17T22:17:50.473Z,83.92
2023-11-17T22:20:20.778Z,83.89
2023-11-17T22:22:51.926Z,83.92
2023-11-17T22:25:22.807Z,83.79
2023-11-17T22:27:53.375Z,83.58
2023-11-17T22:30:25.809Z,83.34
2023-11-17T22:32:56.791Z,83.33
2023-11-17T22:35:26.684Z,83.30
2023-11-17T22:37:55.874Z,83.10
2023-11-17T22:40:25.210Z,82.88
2023-11-17T22:42:54.080Z,82.92
2023-11-17T22:45:23.594Z,82.86
2023-11-17T22:47:53.254Z,82.80
2023-11-17T22:50:23.678Z,82.60
2023-11-17T22:52:55.770Z,82.34
2023-11-17T22:55:24.595Z,82.00
2023-11-17T22:57:53.027Z,81.76
2023-11-17T23:00:39.983Z,81.70
2023-11-17T23:03:11.563Z,81.84
2023-11-17T23:05:46.921Z,81.94
2023-11-17T23:08:18.557Z,82.06
2023-11-17T23:10:46.918Z,82.04
2023-11-17T23:13:15.641Z,82.02
2023-11-17T23:15:43.946Z,82.02
2023-11-17T23:18:14.763Z,82.24
2023-11-17T23:20:44.428Z,82.26
2023-11-17T23:23:13.285Z,82.46
2023-11-17T23:25:41.683Z,82.41
2023-11-17T23:28:09.821Z,81.77
2023-11-17T23:30:38.060Z,81.07
2023-11-17T23:33:09.485Z,80.19
2023-11-17T23:35:38.821Z,79.71
2023-11-17T23:38:09.434Z,79.82
2023-11-17T23:40:37.583Z,79.67
2023-11-17T23:43:05.731Z,79.49
2023-11-17T23:45:33.943Z,79.52
2023-11-17T23:48:03.892Z,79.81
2023-11-17T23:50:36.276Z,79.74
2023-11-17T23:53:07.329Z,79.90
2023-11-17T23:55:37.085Z,79.72
2023-11-17T23:58:05.512Z,79.87
